Главная страница
METAR-TAF:

METAR-TAF

Аэропорты :

Савонлинна, Финляндия

широта: 61-57N, долгота: 028-57E, высота над уровнем моря: 95 м

Текущие метеонаблюдения

Эта сводка был подготовлена 18 минут назад, в 16:20 UTC
Ветер 5 Узел от западно-северо-западный, изменяющийся между западный и северо-западный
Температура 13°C
Влажность 94%
Давление 1014 hPa
Видимость 10 км и более
Сплошная облачность на высоте 1200 фута

METAR: EFSA 231620Z AUTO 29005KT 260V320 9999 OVC012 13/12 Q1014

Время: 19:38 (16:38 UTC)

Прогноз

Эта сводка был подготовлена 26 часа и 12 минут назад, в 14:26 UTC
Прогноз действительный с 22-го 15 UTC до 22-го 18 UTC
Ветер 3 Узел от западный
Видимость 10 км и более
Нет облачности ниже 1500 м, и нет кучево-дождевой облачности

TAF: EFSA 221426Z 2215/2218 27003KT CAVOK

Метеонаблюдения и прогнозы для более 4000 аэропортов (сводки METAR и TAF).

Имеющиеся станции представлены на карте желтыми и красными точками.

Чтобы увидеть название станции, наведите на нее мышь.

Затем щелкните, чтобы увидеть метеонаблюдения и метеопрогнозы.

Управление картой: чтобы увеличить масштаб, щелкните зеленые кнопки с черным крестиком; чтобы уменьшить масштаб, щелкните зеленую кнопку с тире; для просмотра соседних карт щелкайте зеленые стрелки.


METAR-TAF: